createdAt,value
2022-08-20T00:00:03.071Z,61.90
2022-08-20T00:06:23.563Z,68.30
2022-08-20T00:08:57.266Z,76.90
2022-08-20T00:11:35.065Z,80.90
2022-08-20T00:14:08.440Z,77.20
2022-08-20T00:17:04.537Z,77.20
2022-08-20T00:20:04.342Z,72.90
2022-08-20T00:23:09.826Z,76.00
2022-08-20T00:25:46.651Z,74.50
2022-08-20T00:28:23.809Z,80.90
2022-08-20T00:30:58.458Z,77.50
2022-08-20T00:33:34.064Z,85.80
2022-08-20T00:36:15.938Z,79.20
2022-08-20T00:38:50.823Z,70.20
2022-08-20T00:41:26.575Z,76.60
2022-08-20T00:44:26.792Z,71.80
2022-08-20T00:47:23.564Z,77.00
2022-08-20T00:50:44.947Z,80.90
2022-08-20T00:53:25.119Z,80.90
2022-08-20T00:56:03.438Z,71.60
2022-08-20T00:58:41.536Z,70.60
2022-08-20T01:04:58.999Z,81.30
2022-08-20T01:14:51.792Z,67.70
2022-08-20T01:20:48.641Z,76.30
2022-08-20T01:23:31.886Z,85.90
2022-08-20T01:32:53.489Z,88.60
2022-08-20T01:35:27.028Z,76.30
2022-08-20T01:38:22.896Z,85.60
2022-08-20T01:41:24.593Z,77.50
2022-08-20T01:51:07.711Z,74.50
2022-08-20T01:53:43.239Z,77.10
2022-08-20T01:56:15.730Z,81.40
2022-08-20T01:58:58.844Z,86.30
2022-08-20T02:05:21.651Z,82.10
2022-08-20T02:08:19.323Z,86.70
2022-08-20T02:11:18.517Z,86.60
2022-08-20T02:13:53.132Z,83.10
2022-08-20T02:16:55.457Z,87.70
2022-08-20T02:23:02.868Z,88.70
2022-08-20T02:26:04.303Z,87.80
2022-08-20T02:28:40.042Z,93.80
2022-08-20T02:31:12.099Z,106.00
2022-08-20T02:34:21.943Z,105.80
2022-08-20T02:36:43.531Z,102.20
2022-08-20T02:42:47.150Z,100.50
2022-08-20T02:46:05.845Z,103.30
2022-08-20T02:48:45.054Z,104.10
2022-08-20T02:51:40.963Z,100.40
2022-08-20T02:55:01.814Z,103.60
2022-08-20T03:01:18.908Z,99.20
2022-08-20T03:03:54.713Z,101.30
2022-08-20T03:06:49.679Z,102.40
2022-08-20T03:09:54.116Z,103.10
2022-08-20T03:12:52.411Z,106.40
2022-08-20T03:15:26.971Z,93.10
2022-08-20T03:18:25.002Z,104.30
2022-08-20T03:24:43.684Z,102.00
2022-08-20T03:27:16.990Z,98.30
2022-08-20T03:33:28.293Z,97.10
2022-08-20T03:36:04.805Z,100.30
2022-08-20T03:38:42.859Z,92.80
2022-08-20T03:44:59.521Z,96.00
2022-08-20T03:47:56.223Z,99.90
2022-08-20T03:50:55.401Z,96.60
2022-08-20T03:53:52.382Z,90.70
2022-08-20T03:56:25.899Z,93.60
2022-08-20T03:59:24.279Z,98.70
2022-08-20T04:02:07.590Z,90.50
2022-08-20T04:04:43.266Z,87.20
2022-08-20T04:07:44.198Z,101.80
2022-08-20T04:10:38.669Z,116.20
2022-08-20T04:13:15.348Z,103.60
2022-08-20T04:15:51.732Z,100.50
2022-08-20T04:22:10.967Z,87.80
2022-08-20T04:28:50.225Z,75.30
2022-08-20T04:31:45.374Z,81.40
2022-08-20T04:34:22.230Z,88.90
2022-08-20T04:37:21.611Z,79.80
2022-08-20T04:40:20.686Z,72.80
2022-08-20T04:42:56.440Z,70.00
2022-08-20T04:46:16.916Z,72.80
2022-08-20T04:48:54.005Z,67.50
2022-08-20T04:51:51.358Z,59.80
2022-08-20T04:54:27.720Z,67.60
2022-08-20T05:00:52.924Z,59.20
2022-08-20T05:03:28.300Z,59.80
2022-08-20T05:06:50.474Z,58.70
2022-08-20T05:09:47.804Z,55.50
2022-08-20T05:12:43.671Z,51.40
2022-08-20T05:15:54.190Z,53.40
2022-08-20T05:18:53.873Z,50.20
2022-08-20T05:21:25.975Z,43.90
2022-08-20T05:24:24.464Z,44.80
2022-08-20T05:26:57.733Z,50.80
2022-08-20T05:32:54.517Z,45.30
2022-08-20T05:35:42.563Z,45.70
2022-08-20T05:41:27.730Z,43.50
2022-08-20T05:44:03.478Z,46.40
2022-08-20T05:46:43.768Z,52.90
2022-08-20T05:49:20.949Z,54.00
2022-08-20T05:51:55.399Z,52.60
2022-08-20T05:58:24.206Z,40.50
2022-08-20T06:01:45.408Z,43.90
2022-08-20T06:04:31.713Z,48.90
2022-08-20T06:07:32.621Z,54.20
2022-08-20T06:10:07.800Z,47.40
2022-08-20T06:13:29.992Z,48.00
2022-08-20T06:16:06.834Z,47.30
2022-08-20T06:18:43.475Z,46.60
2022-08-20T06:21:21.180Z,53.00
2022-08-20T06:24:18.934Z,47.20
2022-08-20T06:27:00.031Z,49.00
2022-08-20T06:29:58.771Z,46.00
2022-08-20T06:39:37.514Z,36.80
2022-08-20T06:42:12.120Z,39.80
2022-08-20T06:44:55.335Z,46.50
2022-08-20T06:47:34.668Z,39.70
2022-08-20T06:50:12.271Z,38.00
2022-08-20T06:52:52.723Z,30.90
2022-08-20T06:55:51.150Z,31.90
2022-08-20T06:58:36.976Z,36.10
2022-08-20T07:01:23.838Z,39.80
2022-08-20T07:04:01.979Z,41.90
2022-08-20T07:06:37.887Z,27.20
2022-08-20T07:09:36.254Z,27.60
2022-08-20T07:12:13.695Z,26.10
2022-08-20T07:14:47.862Z,27.30
2022-08-20T07:17:46.240Z,25.00
2022-08-20T07:20:19.015Z,23.00
2022-08-20T07:26:18.871Z,31.20
2022-08-20T07:29:17.247Z,29.90
2022-08-20T07:36:06.228Z,27.60
2022-08-20T07:38:48.917Z,29.80
2022-08-20T07:41:23.473Z,29.90
2022-08-20T07:43:56.768Z,33.10
2022-08-20T07:46:36.305Z,28.80
2022-08-20T07:49:15.987Z,29.00
2022-08-20T07:55:22.673Z,27.30
2022-08-20T07:57:58.280Z,24.20
2022-08-20T08:00:34.411Z,25.50
2022-08-20T08:03:14.071Z,28.00
2022-08-20T08:05:48.171Z,22.20
2022-08-20T08:08:22.596Z,24.80
2022-08-20T08:10:58.814Z,23.60
2022-08-20T08:13:30.377Z,26.80
2022-08-20T08:16:03.691Z,21.80
2022-08-20T08:18:39.719Z,23.90
2022-08-20T08:21:13.067Z,21.50
2022-08-20T08:23:46.105Z,23.30
2022-08-20T08:26:19.351Z,25.60
2022-08-20T08:28:50.964Z,19.20
2022-08-20T08:31:22.357Z,18.80
2022-08-20T08:33:53.054Z,17.90
2022-08-20T08:36:27.135Z,20.30
2022-08-20T08:38:58.000Z,16.70
2022-08-20T08:41:34.083Z,16.90
2022-08-20T08:44:08.237Z,17.10
2022-08-20T08:46:41.821Z,16.20
2022-08-20T08:49:15.074Z,17.90
2022-08-20T08:51:49.352Z,17.10
2022-08-20T08:54:26.028Z,14.60
2022-08-20T08:56:57.214Z,14.40
2022-08-20T08:59:29.036Z,15.60
2022-08-20T09:02:21.990Z,15.40
2022-08-20T09:04:56.352Z,14.10
2022-08-20T09:07:29.288Z,14.50
2022-08-20T09:10:01.242Z,13.70
2022-08-20T09:12:33.365Z,14.70
2022-08-20T09:15:05.788Z,16.00
2022-08-20T09:17:36.382Z,15.40
2022-08-20T09:20:11.036Z,15.50
2022-08-20T09:22:42.847Z,15.60
2022-08-20T09:25:13.669Z,16.90
2022-08-20T09:27:44.357Z,15.70
2022-08-20T09:30:18.523Z,15.30
2022-08-20T09:32:49.011Z,16.70
2022-08-20T09:35:20.244Z,18.00
2022-08-20T09:37:52.627Z,16.10
2022-08-20T09:40:24.863Z,18.40
2022-08-20T09:42:55.627Z,13.20
2022-08-20T09:45:28.233Z,16.20
2022-08-20T09:48:29.737Z,15.80
2022-08-20T09:51:09.853Z,14.90
2022-08-20T09:53:45.182Z,13.80
2022-08-20T09:56:20.506Z,14.70
2022-08-20T09:59:18.595Z,13.00
2022-08-20T10:01:50.698Z,11.80
2022-08-20T10:04:24.098Z,27.20
2022-08-20T10:07:18.682Z,13.50
2022-08-20T10:09:50.700Z,10.10
2022-08-20T10:12:21.355Z,12.30
2022-08-20T10:15:17.385Z,11.70
2022-08-20T10:17:53.396Z,11.70
2022-08-20T10:20:26.436Z,11.70
2022-08-20T10:22:59.326Z,11.20
2022-08-20T10:26:03.127Z,12.80
2022-08-20T10:28:33.988Z,10.00
2022-08-20T10:31:10.792Z,10.20
2022-08-20T10:33:51.769Z,17.10
2022-08-20T10:36:23.846Z,10.00
2022-08-20T10:39:18.851Z,12.40
2022-08-20T10:48:49.953Z,12.60
2022-08-20T10:51:20.736Z,9.20
2022-08-20T10:54:12.299Z,11.00
2022-08-20T10:56:49.300Z,11.30
2022-08-20T10:59:21.612Z,10.60
2022-08-20T11:02:21.671Z,10.20
2022-08-20T11:04:56.958Z,12.10
2022-08-20T11:07:58.301Z,13.10
2022-08-20T11:10:30.665Z,14.20
2022-08-20T11:13:08.672Z,11.40
2022-08-20T11:15:44.177Z,13.70
2022-08-20T11:18:38.741Z,13.70
2022-08-20T11:21:09.723Z,14.20
2022-08-20T11:24:05.595Z,13.60
2022-08-20T11:26:41.948Z,13.90
2022-08-20T11:29:16.009Z,12.60
2022-08-20T11:32:14.886Z,15.10
2022-08-20T11:34:53.372Z,16.90
2022-08-20T11:41:11.135Z,11.80
2022-08-20T11:44:04.751Z,12.10
2022-08-20T11:50:50.588Z,16.70
2022-08-20T11:53:22.371Z,17.30
2022-08-20T11:55:55.421Z,16.10
2022-08-20T11:58:29.900Z,16.80
2022-08-20T12:01:04.507Z,15.10
2022-08-20T12:03:37.806Z,19.50
2022-08-20T12:06:12.893Z,20.50
2022-08-20T12:08:43.944Z,15.20
2022-08-20T12:11:40.017Z,19.20
2022-08-20T12:14:16.647Z,17.50
2022-08-20T12:16:49.773Z,19.40
2022-08-20T12:19:22.366Z,19.60
2022-08-20T12:21:56.166Z,20.60
2022-08-20T12:24:29.722Z,20.30
2022-08-20T12:27:12.598Z,21.30
2022-08-20T12:29:48.442Z,21.30
2022-08-20T12:32:43.624Z,22.30
2022-08-20T12:35:22.124Z,20.10
2022-08-20T12:38:18.092Z,24.50
2022-08-20T12:44:10.767Z,23.40
2022-08-20T12:50:14.068Z,24.10
2022-08-20T12:52:47.274Z,26.40
2022-08-20T12:55:47.686Z,24.50
2022-08-20T12:58:28.277Z,25.10
2022-08-20T13:00:58.924Z,23.00
2022-08-20T13:03:40.815Z,25.20
2022-08-20T13:06:45.741Z,24.20
2022-08-20T13:09:48.765Z,22.50
2022-08-20T13:12:22.436Z,17.30
2022-08-20T13:15:25.506Z,21.00
2022-08-20T13:18:22.169Z,19.30
2022-08-20T13:20:59.862Z,21.00
2022-08-20T13:23:36.492Z,20.30
2022-08-20T13:26:11.865Z,21.70
2022-08-20T13:28:45.158Z,20.10
2022-08-20T13:31:17.805Z,23.50
2022-08-20T13:34:14.917Z,20.50
2022-08-20T13:36:47.097Z,24.30
2022-08-20T13:39:45.168Z,24.40
2022-08-20T13:42:26.641Z,24.20
2022-08-20T13:45:37.396Z,26.50
2022-08-20T13:48:20.861Z,25.40
2022-08-20T13:51:07.058Z,23.70
2022-08-20T13:53:45.103Z,21.40
2022-08-20T13:56:21.295Z,22.60
2022-08-20T13:58:54.479Z,27.20
2022-08-20T14:04:45.649Z,27.00
2022-08-20T14:07:23.596Z,26.80
2022-08-20T14:13:40.859Z,25.10
2022-08-20T14:16:21.229Z,22.70
2022-08-20T14:19:24.534Z,32.50
2022-08-20T14:21:58.001Z,29.40
2022-08-20T14:24:28.803Z,23.00
2022-08-20T14:27:10.855Z,21.70
2022-08-20T14:30:32.762Z,19.00
2022-08-20T14:33:30.648Z,18.00
2022-08-20T14:36:28.318Z,17.20
2022-08-20T14:39:00.337Z,17.10
2022-08-20T14:41:40.902Z,18.80
2022-08-20T14:44:16.611Z,16.70
2022-08-20T14:47:15.311Z,19.70
2022-08-20T14:50:18.598Z,22.70
2022-08-20T14:52:51.684Z,21.30
2022-08-20T14:58:44.649Z,20.40
2022-08-20T15:01:15.669Z,19.60
2022-08-20T15:03:49.627Z,21.50
2022-08-20T15:06:27.629Z,24.10
2022-08-20T15:09:05.701Z,19.80
2022-08-20T15:15:05.981Z,23.40
2022-08-20T15:17:50.358Z,25.00
2022-08-20T15:20:47.159Z,30.50
2022-08-20T15:23:22.464Z,26.20
2022-08-20T15:25:58.053Z,23.80
2022-08-20T15:28:29.624Z,25.00
2022-08-20T15:31:06.078Z,23.40
2022-08-20T15:33:41.664Z,24.20
2022-08-20T15:36:16.470Z,24.30
2022-08-20T15:38:52.007Z,22.80
2022-08-20T15:41:23.240Z,24.70
2022-08-20T15:44:02.282Z,24.00
2022-08-20T15:50:00.704Z,25.30
2022-08-20T15:58:38.925Z,26.20
2022-08-20T16:01:47.132Z,29.90
2022-08-20T16:04:52.909Z,28.80
2022-08-20T16:08:21.107Z,27.70
2022-08-20T16:11:02.088Z,34.50
2022-08-20T16:13:43.664Z,26.80
2022-08-20T16:16:42.222Z,29.30
2022-08-20T16:19:18.769Z,29.30
2022-08-20T16:25:39.342Z,31.60
2022-08-20T16:28:41.203Z,29.60
2022-08-20T16:35:01.743Z,26.40
2022-08-20T16:37:40.522Z,28.30
2022-08-20T16:40:21.492Z,30.60
2022-08-20T16:43:00.024Z,35.20
2022-08-20T16:46:00.362Z,30.80
2022-08-20T16:49:01.056Z,31.50
2022-08-20T16:55:18.346Z,34.60
2022-08-20T16:58:18.364Z,33.50
2022-08-20T17:01:15.983Z,31.50
2022-08-20T17:09:55.224Z,28.40
2022-08-20T17:12:50.449Z,29.10
2022-08-20T17:15:49.230Z,27.80
2022-08-20T17:18:30.282Z,26.70
2022-08-20T17:21:09.294Z,25.80
2022-08-20T17:23:55.555Z,30.10
2022-08-20T17:30:32.901Z,25.30
2022-08-20T17:33:24.998Z,33.70
2022-08-20T17:36:05.147Z,29.50
2022-08-20T17:39:05.536Z,29.50
2022-08-20T17:42:02.862Z,28.40
2022-08-20T17:44:43.383Z,33.20
2022-08-20T17:48:06.811Z,37.40
2022-08-20T17:54:03.531Z,32.70
2022-08-20T17:56:38.441Z,32.50
2022-08-20T18:00:01.271Z,34.40
2022-08-20T18:02:58.802Z,33.60
2022-08-20T18:09:44.661Z,31.20
2022-08-20T18:12:33.334Z,29.10
2022-08-20T18:15:39.057Z,27.50
2022-08-20T18:18:33.066Z,28.60
2022-08-20T18:21:18.846Z,27.20
2022-08-20T18:24:18.613Z,26.80
2022-08-20T18:27:18.174Z,31.30
2022-08-20T18:39:57.225Z,33.20
2022-08-20T18:42:35.377Z,31.30
2022-08-20T18:45:15.111Z,31.30
2022-08-20T18:48:14.779Z,33.00
2022-08-20T18:51:20.820Z,34.00
2022-08-20T18:53:56.236Z,33.60
2022-08-20T18:56:52.454Z,34.70
2022-08-20T18:59:57.957Z,36.00
2022-08-20T19:02:57.797Z,34.00
2022-08-20T19:05:35.125Z,37.20
2022-08-20T19:08:45.971Z,40.80
2022-08-20T19:12:09.271Z,39.40
2022-08-20T19:15:32.815Z,44.10
2022-08-20T19:18:18.852Z,45.20
2022-08-20T19:21:02.347Z,40.50
2022-08-20T19:23:40.390Z,49.70
2022-08-20T19:26:25.287Z,50.00
2022-08-20T19:29:57.025Z,49.30
2022-08-20T19:32:56.566Z,48.10
2022-08-20T19:35:36.484Z,49.10
2022-08-20T19:41:20.211Z,53.80
2022-08-20T19:44:31.732Z,52.20
2022-08-20T19:47:04.276Z,51.00
2022-08-20T19:56:27.920Z,44.60
2022-08-20T19:59:33.899Z,40.90
2022-08-20T20:02:21.259Z,41.80
2022-08-20T20:05:18.525Z,39.20
2022-08-20T20:08:00.285Z,36.80
2022-08-20T20:11:00.796Z,37.20
2022-08-20T20:13:39.770Z,38.10
2022-08-20T20:16:18.863Z,40.50
2022-08-20T20:19:22.600Z,37.70
2022-08-20T20:22:36.897Z,42.70
2022-08-20T20:25:35.418Z,41.60
2022-08-20T20:28:31.873Z,38.00
2022-08-20T20:34:19.138Z,41.30
2022-08-20T20:40:28.979Z,45.10
2022-08-20T20:43:27.116Z,40.60
2022-08-20T20:46:05.359Z,42.30
2022-08-20T20:49:45.372Z,44.00
2022-08-20T20:52:46.772Z,43.00
2022-08-20T20:55:48.499Z,39.80
2022-08-20T20:58:22.814Z,36.80
2022-08-20T21:01:49.529Z,34.10
2022-08-20T21:04:46.069Z,36.90
2022-08-20T21:07:22.107Z,38.40
2022-08-20T21:09:59.593Z,34.10
2022-08-20T21:12:34.187Z,34.80
2022-08-20T21:15:53.036Z,33.00
2022-08-20T21:18:29.942Z,32.50
2022-08-20T21:21:04.933Z,33.00
2022-08-20T21:23:40.233Z,35.70
2022-08-20T21:26:21.168Z,34.80
2022-08-20T21:29:22.570Z,36.40
2022-08-20T21:32:27.358Z,36.50
2022-08-20T21:35:00.010Z,39.60
2022-08-20T21:37:35.789Z,39.00
2022-08-20T21:40:32.821Z,41.20
2022-08-20T21:44:00.569Z,36.60
2022-08-20T21:47:21.703Z,35.60
2022-08-20T21:50:43.660Z,33.60
2022-08-20T21:53:44.207Z,33.00
2022-08-20T21:56:22.575Z,34.40
2022-08-20T21:58:55.235Z,35.30
2022-08-20T22:01:30.601Z,36.10
2022-08-20T22:04:13.356Z,33.40
2022-08-20T22:06:48.747Z,33.30
2022-08-20T22:09:25.019Z,32.10
2022-08-20T22:25:52.609Z,31.40
2022-08-20T22:28:26.961Z,33.60
2022-08-20T22:31:23.009Z,32.20
2022-08-20T22:33:58.944Z,31.40
2022-08-20T22:36:38.451Z,33.50
2022-08-20T22:42:58.954Z,35.80
2022-08-20T22:45:35.957Z,33.80
2022-08-20T22:48:42.016Z,31.90
2022-08-20T22:54:40.080Z,33.20
2022-08-20T22:57:20.425Z,36.20
2022-08-20T22:59:58.185Z,34.70
2022-08-20T23:03:01.050Z,34.50
2022-08-20T23:05:47.357Z,36.10
2022-08-20T23:08:49.341Z,32.80
2022-08-20T23:11:27.567Z,34.10
2022-08-20T23:13:59.907Z,32.90
2022-08-20T23:16:57.816Z,32.80
2022-08-20T23:22:57.740Z,32.50
2022-08-20T23:26:01.345Z,31.60
2022-08-20T23:29:25.402Z,30.40
2022-08-20T23:32:45.707Z,34.90
2022-08-20T23:35:23.188Z,32.00
2022-08-20T23:38:06.127Z,33.00
2022-08-20T23:41:08.292Z,32.50
2022-08-20T23:44:29.403Z,32.50
2022-08-20T23:47:06.532Z,30.40
2022-08-20T23:53:04.210Z,29.70
2022-08-20T23:55:42.476Z,27.20
2022-08-20T23:58:18.449Z,30.20
